Time;durP1;ratioP1;P1;durP2;ratioP2;P2;SDS_P1;SDS_P2;PMS_P1;PMS_P2;Temp;Humidity;BMP_temperature;BMP_pressure;BME280_temperature;BME280_humidity;BME280_pressure;Samples;Min_cycle;Max_cycle;Signal;HPM_P1;HPM_P2
2021/03/20 00:04:59;;;;;;;26.15;9.15;;;;;;;-2.85;78.95;101445.81;3253865;88;98000;-78
2021/03/20 00:10:09;;;;;;;15.10;4.78;;;;;;;-2.89;78.86;101443.92;3279768;88;26387;-77
2021/03/20 00:20:50;;;;;;;;;;;;;;;-2.97;79.25;101445.23;2960957;97;26204;-78
2021/03/20 00:26:18;;;;;;;;;;;;;;;;;;;;;
2021/03/20 00:31:19;;;;;;;14.23;4.77;;;;;;;-2.98;79.22;101449.01;2993536;91;33273;-78
2021/03/20 00:36:23;;;;;;;10.73;3.87;;;;;;;-2.98;79.56;101450.36;3185989;91;97840;-77
2021/03/20 00:41:34;;;;;;;8.90;2.77;;;;;;;-2.96;79.40;101451.45;3181119;91;33367;-77
2021/03/20 00:46:40;;;;;;;10.37;2.80;;;;;;;-2.98;79.39;101450.36;3104955;91;98130;-77
2021/03/20 00:51:42;;;;;;;10.20;3.23;;;;;;;-2.98;79.59;101454.92;3207520;90;33294;-77
2021/03/20 00:56:47;;;;;;;12.23;2.90;;;;;;;-3.01;79.40;101460.29;3210992;89;97755;-77
2021/03/20 01:01:51;;;;;;;9.17;2.70;;;;;;;-3.01;79.51;101455.45;3207304;90;25725;-77
2021/03/20 01:06:53;;;;;;;10.70;2.62;;;;;;;-3.05;79.36;101457.05;3208688;89;97700;-76
2021/03/20 01:11:56;;;;;;;8.50;2.47;;;;;;;-3.10;79.56;101455.67;3230571;87;33285;-77
2021/03/20 01:16:58;;;;;;;6.03;2.00;;;;;;;-3.22;79.67;101445.11;3253716;89;98025;-78
2021/03/20 01:21:59;;;;;;;12.23;3.40;;;;;;;-3.15;79.86;101444.88;3267871;83;33263;-76
2021/03/20 01:27:00;;;;;;;9.83;3.33;;;;;;;-3.17;79.76;101450.52;3282046;85;98234;-76
2021/03/20 01:32:01;;;;;;;8.47;3.23;;;;;;;-3.15;79.96;101451.09;3287873;84;33557;-76
2021/03/20 01:37:02;;;;;;;8.57;2.50;;;;;;;-3.17;80.00;101458.59;3283032;84;98397;-76
2021/03/20 01:42:08;;;;;;;9.87;2.53;;;;;;;-3.22;80.17;101459.91;3293383;84;32224;-78
2021/03/20 01:47:14;;;;;;;;;;;;;;;-3.24;80.21;101452.64;3313168;87;98023;-77
2021/03/20 01:52:26;;;;;;;10.23;3.17;;;;;;;-3.26;80.40;101450.76;3318139;85;25837;-77
2021/03/20 01:57:34;;;;;;;8.77;2.93;;;;;;;-3.30;80.30;101453.69;3302719;86;97383;-77
2021/03/20 02:02:35;;;;;;;9.50;3.67;;;;;;;-3.35;80.44;101462.25;3293369;85;33182;-77
2021/03/20 02:07:36;;;;;;;11.07;3.50;;;;;;;-3.37;80.44;101456.33;3316851;86;97942;-76
2021/03/20 02:12:40;;;;;;;9.97;3.43;;;;;;;-3.39;80.47;101440.99;3289560;86;33379;-76
2021/03/20 02:18:10;;;;;;;10.98;3.55;;;;;;;-3.38;80.36;101448.78;3309229;87;98025;-76
2021/03/20 02:23:46;;;;;;;8.83;3.33;;;;;;;-3.41;80.58;101447.98;3316736;86;33361;-77
2021/03/20 02:29:36;;;;;;;16.20;5.10;;;;;;;-3.40;80.56;101454.97;3310611;86;33297;-78
2021/03/20 02:34:43;;;;;;;12.70;3.73;;;;;;;-3.48;80.65;101443.89;3250863;88;98140;-78
2021/03/20 02:40:08;;;;;;;11.67;4.00;;;;;;;-3.50;80.67;101447.38;3310036;88;33369;-78
2021/03/20 02:45:29;;;;;;;12.77;4.83;;;;;;;-3.52;80.90;101447.64;3318701;86;98761;-77
2021/03/20 02:50:42;;;;;;;11.33;4.07;;;;;;;-3.53;80.92;101448.72;3349673;84;33751;-78
2021/03/20 02:55:54;;;;;;;9.73;3.33;;;;;;;-3.56;80.72;101455.16;3318916;86;98614;-78
2021/03/20 03:01:01;;;;;;;9.03;3.43;;;;;;;-3.56;80.85;101454.60;3351927;86;34347;-78
2021/03/20 03:06:17;;;;;;;9.05;3.35;;;;;;;-3.65;81.01;101448.07;3332780;86;98472;-78
2021/03/20 03:11:34;;;;;;;;;;;;;;;-3.65;81.04;101454.00;3351456;86;25466;-78
2021/03/20 03:16:49;;;;;;;10.13;3.73;;;;;;;-3.69;80.99;101453.72;3352123;86;83733;-77
2021/03/20 03:22:09;;;;;;;;;;;;;;;;;;;;;
2021/03/20 03:27:07;;;;;;;10.77;3.10;;;;;;;-3.78;81.06;101461.18;3311426;86;97723;-78
2021/03/20 03:32:17;;;;;;;12.17;3.40;;;;;;;-3.79;81.24;101468.95;3360046;86;33350;-78
2021/03/20 03:37:39;;;;;;;10.88;3.25;;;;;;;-3.81;81.14;101473.78;3343450;83;98180;-79
2021/03/20 03:42:40;;;;;;;12.10;3.23;;;;;;;-3.89;81.21;101472.89;3342377;85;33329;-79
2021/03/20 03:47:42;;;;;;;9.67;3.27;;;;;;;-3.89;81.31;101479.61;3306374;87;97404;-78
2021/03/20 03:52:43;;;;;;;10.57;3.10;;;;;;;-3.87;81.16;101486.91;3311396;86;33272;-78
2021/03/20 03:58:14;;;;;;;9.10;2.85;;;;;;;-3.88;81.38;101494.70;3306349;88;97580;-79
2021/03/20 04:03:56;;;;;;;11.00;3.10;;;;;;;-3.94;81.27;101496.53;3307665;87;33352;-78
2021/03/20 04:09:15;;;;;;;7.53;2.93;;;;;;;-3.96;81.67;101498.67;3307102;88;33097;-78
2021/03/20 04:14:24;;;;;;;10.90;3.03;;;;;;;-4.04;81.55;101495.09;3310889;86;98083;-78
2021/03/20 04:19:36;;;;;;;11.47;2.70;;;;;;;-4.08;81.50;101501.23;3277439;88;33243;-78
2021/03/20 04:24:46;;;;;;;7.83;3.03;;;;;;;-4.13;81.50;101496.64;3298886;86;98954;-78
2021/03/20 04:30:13;;;;;;;9.30;2.77;;;;;;;-4.13;81.64;101496.64;3305983;87;33308;-78
2021/03/20 04:35:37;;;;;;;10.50;3.37;;;;;;;-4.23;81.55;101496.53;3281918;88;98241;-78
2021/03/20 04:40:43;;;;;;;10.40;3.57;;;;;;;-4.19;81.86;101500.86;3313950;86;33262;-76
2021/03/20 04:46:03;;;;;;;9.67;3.33;;;;;;;-4.17;81.92;101500.06;3278708;86;98257;-78
2021/03/20 04:51:23;;;;;;;10.77;3.03;;;;;;;-4.21;81.75;101504.34;3313590;87;33356;-79
2021/03/20 04:56:25;;;;;;;9.27;2.93;;;;;;;-4.26;81.94;101500.27;3306369;86;97710;-77
2021/03/20 05:01:37;;;;;;;11.70;4.27;;;;;;;-4.34;81.77;101523.02;3317640;85;33284;-78
2021/03/20 05:06:38;;;;;;;8.33;3.07;;;;;;;-4.35;82.06;101524.09;3305072;88;97580;-79
2021/03/20 05:11:52;;;;;;;11.33;4.13;;;;;;;-4.29;81.96;101519.05;3317790;87;33248;-79
2021/03/20 05:16:57;;;;;;;12.00;3.87;;;;;;;-4.27;82.12;101527.66;3304418;85;98011;-78
2021/03/20 05:21:58;;;;;;;12.07;4.67;;;;;;;-4.28;82.21;101531.93;3305816;88;33282;-78
2021/03/20 05:27:01;;;;;;;11.03;4.30;;;;;;;-4.36;82.35;101538.56;3288241;86;98233;-78
2021/03/20 05:32:04;;;;;;;8.83;3.70;;;;;;;-4.43;82.74;101547.36;3312517;86;33536;-78
2021/03/20 05:37:08;;;;;;;12.73;3.90;;;;;;;-4.40;83.10;101551.42;3307918;88;97424;-78
2021/03/20 05:42:23;;;;;;;13.17;4.60;;;;;;;-4.31;83.10;101566.05;3281588;86;33431;-79
2021/03/20 05:47:59;;;;;;;8.43;3.33;;;;;;;-4.25;83.40;101563.14;3310574;87;97812;-78
2021/03/20 05:53:41;;;;;;;10.60;3.83;;;;;;;-4.23;83.43;101557.00;3305599;87;33286;-78
2021/03/20 05:59:13;;;;;;;10.50;3.17;;;;;;;-4.19;83.43;101555.44;3310326;86;33241;-78
2021/03/20 06:04:31;;;;;;;9.40;2.87;;;;;;;-4.11;83.76;101550.94;3310502;86;98420;-78
2021/03/20 06:10:01;;;;;;;11.33;3.33;;;;;;;-4.00;83.72;101532.50;3311484;87;33540;-78
2021/03/20 06:15:17;;;;;;;16.17;3.27;;;;;;;-3.84;83.81;101527.55;3307244;86;98383;-77
2021/03/20 06:20:38;;;;;;;7.87;2.97;;;;;;;-3.76;83.82;101522.23;3317464;87;33044;-78
2021/03/20 06:25:53;;;;;;;7.80;2.50;;;;;;;-3.66;83.72;101530.39;3304689;85;97435;-78
2021/03/20 06:31:02;;;;;;;12.50;2.93;;;;;;;-3.56;83.77;101530.48;3312390;88;26321;-77
2021/03/20 06:36:08;;;;;;;7.60;3.00;;;;;;;-3.42;83.62;101536.52;3298903;86;98291;-77
2021/03/20 06:41:26;;;;;;;8.10;2.72;;;;;;;-3.31;83.51;101534.17;3307586;88;26698;-78
2021/03/20 06:46:32;;;;;;;10.07;2.63;;;;;;;-3.24;83.34;101532.58;3317254;86;98556;-77
2021/03/20 06:51:34;;;;;;;7.30;1.77;;;;;;;-3.09;83.32;101532.68;3347097;86;25534;-77
2021/03/20 06:56:38;;;;;;;6.53;2.00;;;;;;;-2.94;83.04;101532.25;3335800;86;97460;-75
2021/03/20 07:02:00;;;;;;;7.20;2.13;;;;;;;-2.83;83.44;101535.80;3314414;86;33408;-77
2021/03/20 07:07:25;;;;;;;4.53;1.77;;;;;;;-2.65;82.93;101549.63;3312958;86;98470;-77
2021/03/20 07:12:28;;;;;;;9.67;2.93;;;;;;;-2.48;82.74;101539.98;3356498;86;33294;-77
2021/03/20 07:17:52;;;;;;;;;;;;;;;;;;;;;
2021/03/20 07:23:37;;;;;;;15.07;4.53;;;;;;;-2.21;82.09;101552.74;3346904;85;33358;-76
2021/03/20 07:28:52;;;;;;;10.37;3.23;;;;;;;-2.05;81.88;101549.01;3339100;86;33490;-75
2021/03/20 07:34:32;;;;;;;7.50;2.90;;;;;;;-1.89;81.29;101559.58;3232998;87;98820;-76
2021/03/20 07:40:02;;;;;;;;;;;;;;;;;;;;;
2021/03/20 07:45:23;;;;;;;7.53;2.70;;;;;;;-1.67;80.51;101559.32;3267274;86;98746;-77
2021/03/20 07:50:47;;;;;;;7.00;2.40;;;;;;;-1.42;80.33;101575.55;3311025;86;25958;-77
2021/03/20 07:56:14;;;;;;;6.90;2.98;;;;;;;-1.42;80.33;101575.55;3330166;86;98683;-77
2021/03/20 08:01:28;;;;;;;7.87;2.30;;;;;;;-1.32;79.51;101589.84;3341930;86;33395;-76
2021/03/20 08:06:43;;;;;;;9.00;2.87;;;;;;;-1.17;79.48;101589.84;3330801;86;98058;-77
2021/03/20 08:11:48;;;;;;;8.27;2.70;;;;;;;-1.02;79.31;101580.38;3343763;86;34407;-77
2021/03/20 08:16:53;;;;;;;6.60;2.23;;;;;;;-0.84;78.97;101572.22;3261091;88;98029;-78
2021/03/20 08:22:31;;;;;;;9.40;1.97;;;;;;;-0.69;78.35;101578.42;3266140;88;34001;-77
2021/03/20 08:28:19;;;;;;;6.40;2.60;;;;;;;-0.54;76.65;101582.97;3281393;86;98158;-78
2021/03/20 08:33:48;;;;;;;4.43;1.97;;;;;;;-0.36;77.11;101580.47;3275345;85;98566;-77
2021/03/20 08:39:06;;;;;;;3.77;1.60;;;;;;;-0.11;76.47;101583.03;3282601;87;33403;-77
2021/03/20 08:44:22;;;;;;;8.30;2.20;;;;;;;0.18;77.19;101583.41;3273878;87;98497;-77
2021/03/20 08:49:37;;;;;;;7.17;1.80;;;;;;;0.41;74.99;101580.56;3282524;88;26150;-77
2021/03/20 08:55:03;;;;;;;7.50;2.00;;;;;;;0.52;74.88;101595.12;3270413;86;98347;-78
2021/03/20 09:00:15;;;;;;;5.93;1.90;;;;;;;0.70;74.32;101601.73;3290373;87;31803;-77
2021/03/20 09:05:32;;;;;;;4.97;2.47;;;;;;;0.86;72.76;101599.98;3235382;88;98091;-76
2021/03/20 09:10:39;;;;;;;6.87;2.02;;;;;;;0.83;71.77;101603.81;3262840;88;26939;-77
2021/03/20 09:15:45;;;;;;;6.85;1.85;;;;;;;1.14;74.01;101610.02;3263161;88;97889;-77
2021/03/20 09:20:59;;;;;;;4.37;1.55;;;;;;;1.67;72.79;101599.95;3284100;88;26563;-77
2021/03/20 09:26:08;;;;;;;4.58;1.47;;;;;;;1.96;70.52;101596.59;3271700;87;97863;-77
2021/03/20 09:31:32;;;;;;;7.03;2.40;;;;;;;2.11;70.28;101609.97;3268170;87;33815;-77
2021/03/20 09:36:41;;;;;;;9.30;4.03;;;;;;;2.35;69.68;101603.95;3302655;87;98646;-76
2021/03/20 09:41:41;;;;;;;7.50;1.60;;;;;;;2.57;68.88;101605.52;3347619;86;33411;-77
2021/03/20 09:46:48;;;;;;;3.83;1.23;;;;;;;2.69;65.08;101609.94;3326301;86;98283;-77
2021/03/20 09:51:58;;;;;;;;;;;;;;;2.71;67.03;101607.72;3346198;86;26850;-76
2021/03/20 09:57:19;;;;;;;7.83;1.97;;;;;;;3.08;66.14;101599.49;3329925;86;84300;-78
2021/03/20 10:02:27;;;;;;;5.93;1.93;;;;;;;3.28;64.84;101595.84;3337906;86;33310;-76
2021/03/20 10:07:33;;;;;;;5.28;2.40;;;;;;;3.40;66.43;101595.37;3310481;86;98249;-77
2021/03/20 10:12:48;;;;;;;6.10;2.02;;;;;;;3.46;63.70;101590.90;3343315;86;26685;-76
2021/03/20 10:18:07;;;;;;;11.43;3.97;;;;;;;3.47;64.07;101586.25;3332663;85;98172;-76
2021/03/20 10:23:16;;;;;;;7.50;2.10;;;;;;;3.76;65.79;101584.84;3340207;85;33293;-76
2021/03/20 10:28:18;;;;;;;4.10;1.20;;;;;;;3.97;62.68;101583.84;3333053;86;98159;-76
2021/03/20 10:33:30;;;;;;;7.27;1.83;;;;;;;4.51;64.94;101587.26;3332548;86;98329;-79
2021/03/20 10:38:31;;;;;;;3.70;1.33;;;;;;;4.93;62.43;101573.14;3326974;86;33323;-77
2021/03/20 10:44:04;;;;;;;5.10;1.80;;;;;;;5.82;61.87;101559.50;3322880;86;98355;-78
2021/03/20 10:49:22;;;;;;;5.20;1.70;;;;;;;5.82;61.87;101559.50;3307118;86;33365;-78
2021/03/20 10:54:49;;;;;;;5.30;1.70;;;;;;;5.97;58.91;101554.95;3291645;88;98484;-78
2021/03/20 10:59:51;;;;;;;7.93;2.03;;;;;;;5.85;59.19;101556.69;3240084;89;33454;-78
2021/03/20 11:04:55;;;;;;;8.00;2.33;;;;;;;5.77;59.38;101553.33;3245257;88;98098;-77
2021/03/20 11:10:09;;;;;;;7.23;1.60;;;;;;;5.75;57.83;101551.48;3255333;88;33904;-77
2021/03/20 11:15:15;;;;;;;5.00;1.97;;;;;;;5.64;57.70;101546.89;3247962;88;98288;-79
2021/03/20 11:20:22;;;;;;;8.45;2.67;;;;;;;5.58;58.84;101541.88;3251522;89;26758;-79
2021/03/20 11:25:35;;;;;;;6.20;1.95;;;;;;;5.64;56.13;101531.87;3236215;88;98345;-78
2021/03/20 11:30:42;;;;;;;5.97;1.90;;;;;;;5.84;56.97;101525.03;3261439;89;33332;-79
2021/03/20 11:35:52;;;;;;;9.48;2.00;;;;;;;5.93;54.81;101531.30;3246998;89;98226;-79
2021/03/20 11:41:08;;;;;;;6.00;2.17;;;;;;;5.68;55.00;101530.09;3216303;90;33347;-79
2021/03/20 11:46:14;;;;;;;6.65;2.08;;;;;;;5.74;54.31;101528.81;3209925;90;98296;-79
2021/03/20 11:51:22;;;;;;;7.77;2.40;;;;;;;5.65;54.00;101523.91;3242008;90;26539;-79
2021/03/20 11:56:28;;;;;;;10.13;2.00;;;;;;;5.47;55.13;101515.44;3284088;87;98445;-79
2021/03/20 12:01:47;;;;;;;10.45;2.40;;;;;;;5.37;55.06;101513.00;3287313;88;26493;-79
2021/03/20 12:06:48;;;;;;;7.22;2.65;;;;;;;5.30;53.97;101511.84;3254339;87;98391;-78
2021/03/20 12:11:53;;;;;;;7.30;2.50;;;;;;;5.18;54.46;101504.23;3288234;88;33402;-79
2021/03/20 12:17:07;;;;;;;3.43;1.80;;;;;;;4.90;56.08;101505.55;3284357;86;98113;-80
2021/03/20 12:22:15;;;;;;;7.83;2.70;;;;;;;4.70;54.47;101500.61;3289443;87;33374;-79
2021/03/20 12:27:27;;;;;;;7.83;2.55;;;;;;;4.73;54.96;101495.91;3288497;87;97817;-78
2021/03/20 12:32:38;;;;;;;10.13;2.63;;;;;;;4.76;55.18;101493.91;3283418;88;33740;-79
2021/03/20 12:37:39;;;;;;;7.70;2.40;;;;;;;4.74;57.17;101485.83;3322486;87;98267;-78
2021/03/20 12:42:39;;;;;;;8.30;3.63;;;;;;;4.76;56.60;101482.21;3329993;86;33331;-79
2021/03/20 12:47:40;;;;;;;7.13;2.60;;;;;;;4.62;55.82;101486.93;3328211;86;97879;-79
2021/03/20 12:52:41;;;;;;;8.83;2.63;;;;;;;4.48;56.10;101482.91;3330783;87;33356;-79
2021/03/20 12:57:41;;;;;;;8.07;2.60;;;;;;;4.47;57.38;101479.16;3323887;87;97821;-79
2021/03/20 13:02:42;;;;;;;8.23;2.70;;;;;;;4.63;57.59;101462.66;3333414;86;34387;-79
2021/03/20 13:07:43;;;;;;;7.77;2.23;;;;;;;4.58;57.47;101459.48;3328373;86;98728;-79
2021/03/20 13:12:43;;;;;;;10.23;4.63;;;;;;;4.58;56.83;101456.77;3333654;87;32145;-78
2021/03/20 13:17:45;;;;;;;11.63;3.30;;;;;;;4.64;56.89;101445.97;3336141;86;98142;-79
2021/03/20 13:22:46;;;;;;;11.83;3.57;;;;;;;4.63;56.98;101436.77;3342151;86;32853;-79
2021/03/20 13:27:47;;;;;;;8.30;2.80;;;;;;;4.68;57.63;101432.51;3335947;86;98353;-80
2021/03/20 13:32:53;;;;;;;13.97;4.00;;;;;;;4.66;55.93;101432.03;3337518;87;32248;-80
2021/03/20 13:37:54;;;;;;;12.17;3.87;;;;;;;4.43;55.85;101429.89;3335012;86;98366;-80
2021/03/20 13:42:55;;;;;;;9.47;3.33;;;;;;;4.42;55.96;101426.92;3350266;86;31711;-79
2021/03/20 13:47:57;;;;;;;11.97;3.90;;;;;;;4.35;55.95;101418.94;3330742;86;98160;-79
2021/03/20 13:52:58;;;;;;;15.50;3.90;;;;;;;4.14;56.49;101423.31;3346361;86;31825;-80
2021/03/20 13:57:59;;;;;;;7.23;2.90;;;;;;;4.15;56.25;101414.02;3337943;86;98230;-78
2021/03/20 14:03:00;;;;;;;14.40;4.70;;;;;;;4.06;57.34;101412.59;3343003;86;32892;-79
2021/03/20 14:08:00;;;;;;;14.40;4.93;;;;;;;3.98;57.29;101416.63;3232867;89;98864;-79
2021/03/20 14:13:02;;;;;;;9.40;2.80;;;;;;;3.88;57.76;101412.77;3263327;88;31758;-80
2021/03/20 14:18:04;;;;;;;11.63;3.97;;;;;;;3.69;57.80;101406.13;3338712;86;97868;-80
2021/03/20 14:23:08;;;;;;;11.00;3.17;;;;;;;3.62;58.06;101406.30;3339798;86;31836;-79
2021/03/20 14:28:11;;;;;;;9.10;3.25;;;;;;;3.44;58.31;101393.08;3332405;85;98250;-79
2021/03/20 14:33:20;;;;;;;9.93;3.87;;;;;;;3.37;58.36;101390.52;3320822;86;31822;-79
2021/03/20 14:38:23;;;;;;;8.50;2.80;;;;;;;3.27;58.85;101382.61;3340332;86;31728;-79
2021/03/20 14:43:24;;;;;;;7.47;2.50;;;;;;;3.31;59.31;101372.16;3278159;88;101491;-80
2021/03/20 14:48:30;;;;;;;9.03;3.17;;;;;;;3.31;58.86;101368.63;3346504;86;31759;-80
2021/03/20 14:53:30;;;;;;;13.33;3.43;;;;;;;3.20;58.42;101351.73;3336719;86;98511;-80
2021/03/20 14:58:31;;;;;;;8.57;3.50;;;;;;;3.17;58.85;101348.83;3347869;86;31862;-79
2021/03/20 15:03:32;;;;;;;7.23;3.03;;;;;;;3.13;59.33;101347.28;3340243;86;98410;-79
2021/03/20 15:08:33;;;;;;;9.97;3.23;;;;;;;3.02;59.48;101337.73;3337081;86;32040;-78
2021/03/20 15:13:35;;;;;;;10.90;3.50;;;;;;;3.00;59.53;101333.70;3337098;86;98190;-78
2021/03/20 15:18:39;;;;;;;8.17;3.30;;;;;;;3.04;59.79;101330.60;3345088;86;31826;-79
2021/03/20 15:23:42;;;;;;;9.90;4.28;;;;;;;3.26;60.34;101302.91;3318291;86;98362;-78
2021/03/20 15:28:48;;;;;;;16.17;5.30;;;;;;;3.26;60.34;101302.91;3338117;86;32854;-79
2021/03/20 15:33:47;;;;;;;11.57;2.77;;;;;;;3.25;60.11;101298.58;3337929;86;98398;-80
2021/03/20 15:38:48;;;;;;;30.13;10.50;;;;;;;3.12;59.06;101299.41;3333469;86;32213;-79
2021/03/20 15:43:49;;;;;;;14.97;5.03;;;;;;;2.97;59.75;101294.33;3339502;86;98595;-81
2021/03/20 15:48:50;;;;;;;9.87;3.57;;;;;;;2.86;59.19;101294.84;3342551;86;31765;-80
2021/03/20 15:53:52;;;;;;;11.03;4.10;;;;;;;2.68;59.96;101288.98;3332015;85;98527;-79
2021/03/20 15:58:53;;;;;;;11.17;4.37;;;;;;;2.52;60.64;101285.76;3335680;86;31757;-79
2021/03/20 16:03:54;;;;;;;12.63;4.85;;;;;;;2.43;61.00;101275.91;3339607;86;98590;-78
2021/03/20 16:08:55;;;;;;;12.60;4.60;;;;;;;2.36;61.51;101270.87;3339999;86;31749;-80
2021/03/20 16:13:55;;;;;;;13.13;4.90;;;;;;;2.33;62.05;101272.03;3334162;86;98223;-80
2021/03/20 16:18:56;;;;;;;11.10;4.28;;;;;;;2.21;61.96;101273.91;3342986;86;30887;-80
2021/03/20 16:23:57;;;;;;;17.07;5.43;;;;;;;2.08;62.25;101259.75;3338307;86;98596;-80
2021/03/20 16:28:57;;;;;;;14.03;5.23;;;;;;;1.96;62.57;101262.15;3340425;86;28437;-79
2021/03/20 16:33:58;;;;;;;14.23;5.33;;;;;;;1.86;63.05;101256.90;3341123;86;98572;-80
2021/03/20 16:39:03;;;;;;;17.00;6.33;;;;;;;1.74;63.84;101248.44;3346811;86;36020;-80
2021/03/20 16:44:06;;;;;;;16.10;7.33;;;;;;;1.71;64.04;101242.81;3336576;85;98837;-79
2021/03/20 16:49:08;;;;;;;23.03;8.73;;;;;;;1.66;64.61;101236.94;3338203;86;35137;-78
2021/03/20 16:54:09;;;;;;;14.05;6.08;;;;;;;1.69;65.23;101234.17;3334816;86;98555;-80
2021/03/20 16:59:10;;;;;;;17.77;7.40;;;;;;;1.59;65.49;101232.99;3351078;86;35102;-79
2021/03/20 17:04:11;;;;;;;14.90;6.30;;;;;;;1.54;65.92;101220.88;3337607;86;98912;-78
2021/03/20 17:09:12;;;;;;;18.60;7.33;;;;;;;1.54;66.26;101216.23;3283415;88;35025;-79
2021/03/20 17:14:12;;;;;;;22.87;8.30;;;;;;;1.51;66.42;101204.64;3268974;87;98096;-80
2021/03/20 17:19:13;;;;;;;17.17;7.30;;;;;;;1.51;66.59;101195.69;3277321;88;35071;-79
2021/03/20 17:24:15;;;;;;;16.03;6.20;;;;;;;1.48;66.68;101194.94;3271503;88;98774;-80
2021/03/20 17:29:15;;;;;;;18.13;7.57;;;;;;;1.43;66.87;101193.67;3275403;88;35601;-79
2021/03/20 17:34:16;;;;;;;17.27;6.40;;;;;;;1.36;67.08;101182.37;3271658;87;98179;-79
2021/03/20 17:39:20;;;;;;;17.67;7.00;;;;;;;1.31;67.43;101182.50;3285465;88;32673;-79
2021/03/20 17:44:20;;;;;;;17.80;7.07;;;;;;;1.30;67.47;101170.83;3278399;87;98114;-80
2021/03/20 17:49:22;;;;;;;19.00;8.40;;;;;;;1.27;67.26;101166.56;3339952;86;32736;-78
2021/03/20 17:54:26;;;;;;;22.50;7.40;;;;;;;1.24;67.29;101160.36;3336774;86;98253;-80
2021/03/20 17:59:42;;;;;;;17.50;6.90;;;;;;;1.22;67.37;101148.45;3337644;86;32733;-81
2021/03/20 18:04:41;;;;;;;18.87;7.47;;;;;;;1.20;67.65;101147.17;3297092;86;98760;-80
2021/03/20 18:09:45;;;;;;;18.37;7.60;;;;;;;1.18;67.72;101145.28;3338323;86;32742;-80
2021/03/20 18:14:46;;;;;;;21.07;8.45;;;;;;;1.17;67.91;101145.86;3329919;85;98458;-79
2021/03/20 18:19:52;;;;;;;14.80;7.03;;;;;;;1.13;68.14;101134.53;3297733;86;98716;-80
2021/03/20 18:24:54;;;;;;;15.23;6.47;;;;;;;1.13;68.01;101131.28;3319014;86;32832;-79
2021/03/20 18:29:55;;;;;;;19.07;6.80;;;;;;;1.12;68.05;101126.14;3315065;86;98653;-80
2021/03/20 18:34:56;;;;;;;13.97;5.83;;;;;;;1.09;68.02;101118.06;3342035;86;32705;-80
2021/03/20 18:39:57;;;;;;;13.80;6.10;;;;;;;1.12;68.04;101118.02;3335197;86;98753;-80
2021/03/20 18:44:58;;;;;;;15.15;5.60;;;;;;;1.10;67.99;101109.39;3340000;86;32697;-79
2021/03/20 18:50:00;;;;;;;18.07;6.90;;;;;;;1.07;68.10;101111.32;3280575;86;98763;-79
2021/03/20 18:55:01;;;;;;;20.13;7.40;;;;;;;1.07;68.17;101105.91;3285915;88;32672;-79
2021/03/20 19:00:06;;;;;;;17.80;5.93;;;;;;;1.08;68.25;101098.02;3235528;87;98761;-78
2021/03/20 19:05:08;;;;;;;21.37;7.87;;;;;;;1.09;68.45;101094.23;3347273;86;33236;-79
2021/03/20 19:10:11;;;;;;;22.47;7.90;;;;;;;1.10;68.47;101089.05;3341757;86;98561;-79
2021/03/20 19:15:15;;;;;;;17.30;6.60;;;;;;;1.10;68.80;101094.48;3280676;88;32780;-80
2021/03/20 19:20:20;;;;;;;17.37;6.60;;;;;;;1.08;68.90;101080.41;3336285;86;98927;-78
2021/03/20 19:25:20;;;;;;;18.67;6.97;;;;;;;1.06;69.18;101090.75;3352639;86;33198;-80
2021/03/20 19:30:29;;;;;;;17.17;7.73;;;;;;;1.01;69.57;101074.57;3342558;86;98466;-78
2021/03/20 19:35:31;;;;;;;19.83;7.30;;;;;;;0.97;69.72;101060.81;3348978;86;32750;-79
2021/03/20 19:40:38;;;;;;;19.93;7.70;;;;;;;0.97;69.94;101054.05;3345526;85;98445;-80
2021/03/20 19:45:42;;;;;;;16.10;6.23;;;;;;;0.96;70.23;101047.56;3349668;86;33898;-80
2021/03/20 19:50:48;;;;;;;17.87;7.13;;;;;;;0.95;70.56;101035.94;3325384;86;98495;-80
2021/03/20 19:55:51;;;;;;;19.65;6.58;;;;;;;0.96;70.79;101031.30;3299452;88;26611;-79
2021/03/20 20:01:05;;;;;;;19.87;7.53;;;;;;;0.85;70.94;100998.72;3296000;88;98278;-79
2021/03/20 20:06:07;;;;;;;21.67;8.50;;;;;;;0.94;71.05;101000.42;3299433;86;32998;-79
2021/03/20 20:11:08;;;;;;;21.03;8.00;;;;;;;0.91;71.16;101002.40;3298545;87;98466;-78
2021/03/20 20:16:09;;;;;;;19.47;7.17;;;;;;;0.94;71.04;100986.88;3299203;88;33251;-78
2021/03/20 20:21:14;;;;;;;22.77;9.97;;;;;;;0.93;71.16;100981.21;3286865;88;98679;-80
2021/03/20 20:26:16;;;;;;;21.37;8.73;;;;;;;0.91;71.41;100970.42;3297564;88;32698;-80
2021/03/20 20:31:19;;;;;;;21.77;7.50;;;;;;;0.91;71.47;100968.52;3289490;86;98472;-80
2021/03/20 20:36:21;;;;;;;24.53;8.63;;;;;;;0.91;71.58;100956.88;3304165;88;33193;-78
2021/03/20 20:41:22;;;;;;;24.10;6.97;;;;;;;0.88;71.83;100958.27;3291845;88;98445;-79
2021/03/20 20:46:27;;;;;;;21.17;8.35;;;;;;;0.86;71.90;100957.78;3299714;88;32780;-79
2021/03/20 20:51:27;;;;;;;17.73;6.92;;;;;;;0.84;72.24;100949.16;3293149;87;98395;-79
2021/03/20 20:56:28;;;;;;;17.20;7.37;;;;;;;0.86;72.05;100938.00;3287685;88;32708;-77
2021/03/20 21:01:29;;;;;;;22.17;7.70;;;;;;;0.85;72.17;100934.50;3296045;87;98474;-80
2021/03/20 21:06:30;;;;;;;22.70;8.83;;;;;;;0.85;72.32;100929.09;3299315;88;33817;-79
2021/03/20 21:11:32;;;;;;;19.47;7.27;;;;;;;0.84;72.24;100923.42;3299539;86;98272;-79
2021/03/20 21:16:33;;;;;;;19.40;7.10;;;;;;;0.84;72.13;100907.17;3298043;88;33249;-79
2021/03/20 21:21:37;;;;;;;20.63;7.97;;;;;;;0.83;72.12;100904.75;3293077;88;101034;-80
2021/03/20 21:26:37;;;;;;;20.30;7.90;;;;;;;0.83;72.23;100898.77;3299704;87;32756;-79
2021/03/20 21:31:38;;;;;;;20.43;8.03;;;;;;;0.82;72.19;100897.73;3293030;87;98353;-77
2021/03/20 21:36:39;;;;;;;21.50;7.27;;;;;;;0.81;72.46;100887.44;3307614;88;32760;-78
2021/03/20 21:41:39;;;;;;;18.10;7.60;;;;;;;0.84;72.49;100876.55;3296571;88;98038;-79
2021/03/20 21:46:42;;;;;;;18.90;7.40;;;;;;;0.81;72.80;100873.89;3287862;88;32800;-79
2021/03/20 21:51:43;;;;;;;19.83;7.67;;;;;;;0.79;73.08;100857.69;3292502;87;98066;-80
2021/03/20 21:56:44;;;;;;;21.07;7.70;;;;;;;0.75;73.36;100845.84;3281503;88;32717;-81
2021/03/20 22:01:45;;;;;;;22.60;8.37;;;;;;;0.75;73.61;100845.84;3225787;89;98438;-80
2021/03/20 22:06:46;;;;;;;20.23;8.73;;;;;;;0.74;73.47;100834.76;3186629;91;33196;-80
2021/03/20 22:11:48;;;;;;;20.47;7.43;;;;;;;0.73;73.79;100836.66;3288072;87;98021;-79
2021/03/20 22:16:50;;;;;;;18.83;7.77;;;;;;;0.72;73.85;100815.31;3296826;88;32989;-80
2021/03/20 22:21:51;;;;;;;20.43;7.13;;;;;;;0.70;74.05;100810.19;3296920;86;98388;-80
2021/03/20 22:26:51;;;;;;;17.53;6.80;;;;;;;0.70;74.06;100795.83;3305702;88;32713;-80
2021/03/20 22:31:53;;;;;;;21.20;6.63;;;;;;;0.69;74.06;100796.40;3300520;88;98314;-80
2021/03/20 22:36:53;;;;;;;23.43;6.67;;;;;;;0.57;73.95;100752.78;3299554;88;32821;-80
2021/03/20 22:41:54;;;;;;;17.60;7.33;;;;;;;0.57;73.95;100752.78;3296286;88;98648;-80
2021/03/20 22:46:55;;;;;;;16.30;6.43;;;;;;;0.70;73.91;100751.14;3309224;88;28739;-78
2021/03/20 22:51:56;;;;;;;18.63;7.57;;;;;;;0.70;73.68;100747.89;3296681;86;98913;-79
2021/03/20 22:56:57;;;;;;;18.67;7.37;;;;;;;0.72;73.46;100736.75;3197644;90;26306;-80
2021/03/20 23:01:58;;;;;;;14.90;6.43;;;;;;;0.73;73.29;100737.78;3295151;87;98112;-79
2021/03/20 23:06:59;;;;;;;20.43;6.63;;;;;;;0.75;73.17;100725.30;3288469;88;26467;-79
2021/03/20 23:12:01;;;;;;;15.43;4.90;;;;;;;0.77;73.04;100725.24;3296218;88;97887;-80
2021/03/20 23:17:04;;;;;;;15.93;5.37;;;;;;;0.74;73.00;100712.86;3300379;87;26760;-80
2021/03/20 23:22:08;;;;;;;15.47;5.47;;;;;;;0.75;72.95;100700.91;3297194;88;97698;-79
2021/03/20 23:27:13;;;;;;;15.73;5.27;;;;;;;0.78;72.88;100697.04;3282720;88;97784;-80
2021/03/20 23:32:14;;;;;;;17.30;5.13;;;;;;;0.79;72.88;100681.60;3246970;88;97815;-80
2021/03/20 23:37:15;;;;;;;12.10;4.80;;;;;;;0.80;72.58;100677.23;3278330;86;98063;-80
2021/03/20 23:42:17;;;;;;;14.70;4.67;;;;;;;0.78;72.43;100672.66;3291664;87;26056;-79
2021/03/20 23:47:21;;;;;;;14.50;4.70;;;;;;;0.82;72.23;100675.01;3258904;88;104137;-80
2021/03/20 23:52:22;;;;;;;10.03;4.13;;;;;;;0.85;71.92;100657.34;3319859;86;27503;-80
2021/03/20 23:57:23;;;;;;;10.20;4.50;;;;;;;0.85;71.97;100653.28;3327681;86;107168;-80
